createdAt,value
2022-11-03T00:02:26.596Z,100466.99
2022-11-03T00:04:55.758Z,100464.07
2022-11-03T00:07:24.764Z,100458.94
2022-11-03T00:09:55.369Z,100457.37
2022-11-03T00:12:25.918Z,100464.22
2022-11-03T00:14:54.900Z,100449.17
2022-11-03T00:17:25.463Z,100455.49
2022-11-03T00:19:55.306Z,100448.14
2022-11-03T00:22:25.126Z,100454.45
2022-11-03T00:24:54.338Z,100451.20
2022-11-03T00:27:24.413Z,100449.32
2022-11-03T00:29:53.274Z,100452.02
2022-11-03T00:32:23.698Z,100458.66
2022-11-03T00:34:52.983Z,100460.02
2022-11-03T00:37:22.198Z,100459.69
2022-11-03T00:39:51.158Z,100455.78
2022-11-03T00:42:20.145Z,100459.92
2022-11-03T00:44:49.736Z,100458.75
2022-11-03T00:47:21.680Z,100459.78
2022-11-03T00:49:49.665Z,100462.19
2022-11-03T00:52:19.056Z,100458.09
2022-11-03T00:54:51.345Z,100449.88
2022-11-03T00:57:19.085Z,100446.82
2022-11-03T00:59:48.437Z,100439.14
2022-11-03T01:02:17.892Z,100438.15
2022-11-03T01:05:05.287Z,100440.73
2022-11-03T01:07:35.680Z,100445.36
2022-11-03T01:10:07.021Z,100445.17
2022-11-03T01:12:36.551Z,100448.77
2022-11-03T01:15:08.834Z,100439.89
2022-11-03T01:17:40.760Z,100442.11
2022-11-03T01:20:11.204Z,100447.25
2022-11-03T01:22:40.753Z,100449.47
2022-11-03T01:25:10.021Z,100440.75
2022-11-03T01:27:40.376Z,100456.96
2022-11-03T01:30:10.626Z,100456.63
2022-11-03T01:32:41.648Z,100458.84
2022-11-03T01:35:10.709Z,100461.58
2022-11-03T01:37:39.555Z,100453.70
2022-11-03T01:40:10.511Z,100448.77
2022-11-03T01:42:40.389Z,100445.88
2022-11-03T01:45:10.397Z,100445.22
2022-11-03T01:47:40.327Z,100442.48
2022-11-03T01:50:12.656Z,100456.48
2022-11-03T01:52:57.191Z,100454.27
2022-11-03T01:55:32.489Z,100445.22
2022-11-03T01:58:20.049Z,100447.25
2022-11-03T02:00:52.790Z,100447.06
2022-11-03T02:03:22.663Z,100446.20
2022-11-03T02:05:53.727Z,100448.75
2022-11-03T02:08:32.638Z,100455.20
2022-11-03T02:11:07.537Z,100451.11
2022-11-03T02:13:37.321Z,100448.05
2022-11-03T02:16:07.032Z,100447.38
2022-11-03T02:18:37.797Z,100441.06
2022-11-03T02:21:15.245Z,100434.23
2022-11-03T02:24:06.225Z,100435.93
2022-11-03T02:26:35.636Z,100435.55
2022-11-03T02:29:04.388Z,100440.31
2022-11-03T02:31:43.808Z,100436.41
2022-11-03T02:34:36.466Z,100438.29
2022-11-03T02:37:15.029Z,100438.99
2022-11-03T02:39:49.217Z,100441.73
2022-11-03T02:42:19.134Z,100444.65
2022-11-03T02:44:48.379Z,100439.37
2022-11-03T02:47:18.098Z,100435.79
2022-11-03T02:49:49.597Z,100427.07
2022-11-03T02:52:43.459Z,100432.87
2022-11-03T02:55:39.304Z,100440.69
2022-11-03T02:58:42.495Z,100431.27
2022-11-03T03:01:37.299Z,100432.59
2022-11-03T03:04:08.317Z,100434.28
2022-11-03T03:06:48.339Z,100427.97
2022-11-03T03:09:23.225Z,100431.03
2022-11-03T03:11:53.482Z,100425.56
2022-11-03T03:14:34.222Z,100425.75
2022-11-03T03:17:10.441Z,100423.02
2022-11-03T03:20:07.792Z,100422.17
2022-11-03T03:22:56.621Z,100414.81
2022-11-03T03:25:35.284Z,100419.63
2022-11-03T03:28:12.267Z,100411.23
2022-11-03T03:30:42.253Z,100416.19
2022-11-03T03:33:12.197Z,100415.01
2022-11-03T03:35:43.044Z,100412.13
2022-11-03T03:38:17.262Z,100404.97
2022-11-03T03:40:47.187Z,100403.78
2022-11-03T03:43:16.238Z,100401.95
2022-11-03T03:45:45.182Z,100404.36
2022-11-03T03:48:14.332Z,100406.57
2022-11-03T03:50:44.116Z,100406.57
2022-11-03T03:53:13.733Z,100408.61
2022-11-03T03:55:46.865Z,100406.06
2022-11-03T03:58:15.953Z,100408.28
2022-11-03T04:00:44.708Z,100390.70
2022-11-03T04:03:18.361Z,100401.11
2022-11-03T04:05:47.599Z,100403.52
2022-11-03T04:08:19.025Z,100400.59
2022-11-03T04:11:06.341Z,100398.53
2022-11-03T04:13:53.893Z,100379.58
2022-11-03T04:16:41.994Z,100380.62
2022-11-03T04:19:30.368Z,100383.35
2022-11-03T04:22:16.293Z,100384.20
2022-11-03T04:24:53.934Z,100382.31
2022-11-03T04:27:37.407Z,100379.91
2022-11-03T04:30:19.081Z,100379.75
2022-11-03T04:32:49.012Z,100375.30
2022-11-03T04:35:26.557Z,100374.44
2022-11-03T04:37:58.198Z,100378.53
2022-11-03T04:40:27.159Z,100383.81
2022-11-03T04:42:56.403Z,100375.80
2022-11-03T04:45:32.480Z,100377.68
2022-11-03T04:48:03.419Z,100375.61
2022-11-03T04:50:32.579Z,100379.19
2022-11-03T04:53:02.948Z,100379.19
2022-11-03T04:55:32.218Z,100378.48
2022-11-03T04:58:05.569Z,100375.09
2022-11-03T05:00:34.943Z,100378.16
2022-11-03T05:03:05.014Z,100383.95
2022-11-03T05:05:33.872Z,100378.81
2022-11-03T05:08:05.729Z,100374.70
2022-11-03T05:10:35.187Z,100375.75
2022-11-03T05:13:09.959Z,100371.98
2022-11-03T05:15:44.072Z,100381.16
2022-11-03T05:18:33.235Z,100384.23
2022-11-03T05:21:11.585Z,100386.25
2022-11-03T05:23:53.925Z,100379.94
2022-11-03T05:26:30.066Z,100384.50
2022-11-03T05:29:23.524Z,100395.06
2022-11-03T05:31:54.334Z,100391.62
2022-11-03T05:34:36.566Z,100391.10
2022-11-03T05:37:27.632Z,100393.31
2022-11-03T05:40:17.333Z,100394.16
2022-11-03T05:42:46.956Z,100394.35
2022-11-03T05:45:26.699Z,100391.43
2022-11-03T05:47:57.640Z,100388.17
2022-11-03T05:50:29.517Z,100389.55
2022-11-03T05:53:18.858Z,100392.09
2022-11-03T05:55:47.844Z,100398.02
2022-11-03T05:58:38.646Z,100398.62
2022-11-03T06:01:25.137Z,100401.97
2022-11-03T06:03:54.705Z,100393.38
2022-11-03T06:06:37.561Z,100403.47
2022-11-03T06:09:20.855Z,100400.88
2022-11-03T06:11:51.349Z,100402.19
2022-11-03T06:14:26.143Z,100392.56
2022-11-03T06:17:00.796Z,100397.65
2022-11-03T06:19:38.890Z,100397.27
2022-11-03T06:22:37.094Z,100404.41
2022-11-03T06:25:29.845Z,100405.20
2022-11-03T06:28:08.930Z,100413.87
2022-11-03T06:33:21.051Z,100411.73
2022-11-03T06:35:51.275Z,100409.13
2022-11-03T06:38:25.231Z,100411.67
2022-11-03T06:40:55.087Z,100410.95
2022-11-03T06:43:28.507Z,100401.64
2022-11-03T06:46:06.380Z,100403.27
2022-11-03T06:48:38.727Z,100392.78
2022-11-03T06:51:15.934Z,100390.37
2022-11-03T06:53:44.508Z,100389.27
2022-11-03T06:56:16.576Z,100393.14
2022-11-03T06:58:45.933Z,100386.42
2022-11-03T07:01:25.812Z,100384.66
2022-11-03T07:04:22.410Z,100387.66
2022-11-03T07:06:53.777Z,100384.53
2022-11-03T07:09:28.172Z,100387.72
2022-11-03T07:12:01.517Z,100384.62
2022-11-03T07:14:32.913Z,100392.96
2022-11-03T07:17:05.532Z,100389.70
2022-11-03T07:19:38.238Z,100390.23
2022-11-03T07:22:24.116Z,100402.16
2022-11-03T07:24:56.915Z,100398.90
2022-11-03T07:27:31.763Z,100402.28
2022-11-03T07:30:11.008Z,100397.00
2022-11-03T07:32:40.257Z,100400.27
2022-11-03T07:35:29.452Z,100395.83
2022-11-03T07:38:02.191Z,100396.16
2022-11-03T07:40:33.982Z,100398.17
2022-11-03T07:43:20.213Z,100398.70
2022-11-03T07:45:52.518Z,100398.50
2022-11-03T07:48:38.583Z,100399.02
2022-11-03T07:51:34.436Z,100400.52
2022-11-03T07:54:26.738Z,100390.21
2022-11-03T07:57:00.572Z,100390.86
2022-11-03T07:59:40.738Z,100387.40
2022-11-03T08:02:33.850Z,100385.63
2022-11-03T08:05:05.064Z,100364.36
2022-11-03T08:07:33.923Z,100361.87
2022-11-03T08:10:04.563Z,100365.63
2022-11-03T08:12:34.143Z,100364.42
2022-11-03T08:15:03.455Z,100365.64
2022-11-03T08:17:32.977Z,100375.95
2022-11-03T08:20:02.271Z,100363.66
2022-11-03T08:22:33.174Z,100367.36
2022-11-03T08:25:02.223Z,100370.22
2022-11-03T08:27:31.212Z,100372.44
2022-11-03T08:30:00.993Z,100367.28
2022-11-03T08:32:29.741Z,100371.71
2022-11-03T08:34:59.395Z,100366.95
2022-11-03T08:37:28.511Z,100361.59
2022-11-03T08:39:58.002Z,100364.45
2022-11-03T08:42:26.811Z,100367.63
2022-11-03T08:44:55.726Z,100349.80
2022-11-03T08:47:25.771Z,100355.41
2022-11-03T08:49:54.965Z,100347.83
2022-11-03T08:52:24.868Z,100349.31
2022-11-03T08:54:53.904Z,100351.41
2022-11-03T08:57:22.621Z,100350.89
2022-11-03T08:59:53.464Z,100346.36
2022-11-03T09:02:22.580Z,100350.59
2022-11-03T09:04:52.171Z,100348.70
2022-11-03T09:07:21.208Z,100341.52
2022-11-03T09:12:21.453Z,100348.70
2022-11-03T09:14:52.037Z,100342.16
2022-11-03T09:17:22.714Z,100339.95
2022-11-03T09:19:52.476Z,100340.99
2022-11-03T09:22:22.367Z,100341.44
2022-11-03T09:24:51.008Z,100340.50
2022-11-03T09:27:20.380Z,100342.92
2022-11-03T09:30:12.170Z,100337.52
2022-11-03T09:32:23.699Z,100339.73
2022-11-03T09:34:54.033Z,100342.16
2022-11-03T09:37:22.789Z,100341.84
2022-11-03T09:39:56.263Z,100339.19
2022-11-03T09:42:24.920Z,100339.71
2022-11-03T09:44:54.614Z,100335.59
2022-11-03T09:47:33.429Z,100342.34
2022-11-03T09:50:01.882Z,100337.05
2022-11-03T09:52:31.790Z,100338.95
2022-11-03T09:55:01.965Z,100341.90
2022-11-03T09:57:31.398Z,100331.98
2022-11-03T10:00:00.455Z,100336.82
2022-11-03T10:02:31.646Z,100334.08
2022-11-03T10:05:06.787Z,100341.25
2022-11-03T10:07:32.704Z,100332.70
2022-11-03T10:10:02.697Z,100334.92
2022-11-03T10:12:40.029Z,100343.36
2022-11-03T10:15:44.480Z,100332.80
2022-11-03T10:18:37.870Z,100344.81
2022-11-03T10:21:52.469Z,100336.99
2022-11-03T10:24:42.313Z,100340.75
2022-11-03T10:28:14.527Z,100335.99
2022-11-03T10:31:21.681Z,100342.98
2022-11-03T10:33:58.002Z,100346.73
2022-11-03T10:36:36.926Z,100342.90
2022-11-03T10:39:31.736Z,100339.71
2022-11-03T10:42:02.444Z,100346.64
2022-11-03T10:44:36.199Z,100348.41
2022-11-03T10:47:31.807Z,100348.69
2022-11-03T10:50:25.513Z,100353.00
2022-11-03T10:52:56.198Z,100355.09
2022-11-03T10:55:25.751Z,100357.19
2022-11-03T10:58:03.008Z,100350.09
2022-11-03T11:00:33.264Z,100355.97
2022-11-03T11:03:02.596Z,100350.88
2022-11-03T11:05:32.746Z,100350.36
2022-11-03T11:08:04.569Z,100348.47
2022-11-03T11:10:33.647Z,100348.14
2022-11-03T11:13:24.386Z,100346.77
2022-11-03T11:16:01.143Z,100348.79
2022-11-03T11:18:37.144Z,100348.47
2022-11-03T11:21:22.128Z,100340.64
2022-11-03T11:24:03.403Z,100346.52
2022-11-03T11:27:06.324Z,100342.81
2022-11-03T11:30:22.717Z,100337.73
2022-11-03T11:33:20.821Z,100346.59
2022-11-03T11:36:24.786Z,100345.35
2022-11-03T11:39:07.563Z,100345.55
2022-11-03T11:42:30.558Z,100341.16
2022-11-03T11:45:09.864Z,100340.83
2022-11-03T11:51:30.315Z,100346.47
2022-11-03T11:54:21.827Z,100335.03
2022-11-03T11:57:22.890Z,100343.20
2022-11-03T11:59:52.704Z,100337.73
2022-11-03T12:02:26.013Z,100344.58
2022-11-03T12:05:02.574Z,100339.22
2022-11-03T12:07:35.117Z,100339.35
2022-11-03T12:10:16.923Z,100333.16
2022-11-03T12:12:48.457Z,100343.39
2022-11-03T12:15:50.875Z,100345.08
2022-11-03T12:18:49.292Z,100346.13
2022-11-03T12:21:18.763Z,100344.75
2022-11-03T12:23:49.625Z,100341.69
2022-11-03T12:26:37.014Z,100333.28
2022-11-03T12:29:07.637Z,100333.47
2022-11-03T12:31:38.919Z,100338.36
2022-11-03T12:34:09.020Z,100332.55
2022-11-03T12:36:38.524Z,100338.36
2022-11-03T12:39:09.497Z,100338.48
2022-11-03T12:41:38.951Z,100336.19
2022-11-03T12:44:09.709Z,100343.16
2022-11-03T12:46:40.447Z,100341.07
2022-11-03T12:49:11.696Z,100337.36
2022-11-03T12:51:42.809Z,100342.19
2022-11-03T12:54:11.644Z,100334.30
2022-11-03T12:56:41.435Z,100337.69
2022-11-03T12:59:12.028Z,100341.27
2022-11-03T13:01:42.085Z,100336.64
2022-11-03T13:04:13.046Z,100343.81
2022-11-03T13:13:50.255Z,100339.97
2022-11-03T13:16:27.836Z,100343.56
2022-11-03T13:19:00.602Z,100352.11
2022-11-03T13:21:37.146Z,100352.75
2022-11-03T13:24:13.820Z,100351.70
2022-11-03T13:26:44.336Z,100347.92
2022-11-03T13:29:13.426Z,100351.83
2022-11-03T13:31:42.465Z,100357.11
2022-11-03T13:34:11.751Z,100360.89
2022-11-03T13:36:41.561Z,100358.80
2022-11-03T13:39:12.378Z,100365.26
2022-11-03T13:41:41.805Z,100364.41
2022-11-03T13:44:13.655Z,100361.34
2022-11-03T13:46:44.478Z,100371.27
2022-11-03T13:51:45.132Z,100376.34
2022-11-03T14:06:53.725Z,100387.52
2022-11-03T14:09:22.899Z,100388.97
2022-11-03T14:11:58.195Z,100383.76
2022-11-03T14:14:27.586Z,100388.06
2022-11-03T14:16:56.955Z,100391.33
2022-11-03T14:19:35.279Z,100391.40
2022-11-03T14:21:56.857Z,100392.64
2022-11-03T14:24:26.417Z,100403.27
2022-11-03T14:26:57.176Z,100404.31
2022-11-03T14:29:27.546Z,100403.83
2022-11-03T14:31:56.160Z,100400.44
2022-11-03T14:34:26.050Z,100408.98
2022-11-03T14:36:56.098Z,100413.09
2022-11-03T14:39:25.505Z,100413.80
2022-11-03T14:42:06.334Z,100418.62
2022-11-03T14:44:39.044Z,100423.98
2022-11-03T14:47:11.120Z,100424.50
2022-11-03T14:49:40.322Z,100426.91
2022-11-03T14:55:09.706Z,100441.19
2022-11-03T14:57:40.907Z,100438.32
2022-11-03T15:00:11.237Z,100445.00
2022-11-03T15:02:41.597Z,100457.52
2022-11-03T15:05:12.724Z,100457.58
2022-11-03T15:07:44.670Z,100454.19
2022-11-03T15:10:14.406Z,100452.69
2022-11-03T15:12:45.261Z,100465.66
2022-11-03T15:15:15.094Z,100465.00
2022-11-03T15:17:44.154Z,100465.52
2022-11-03T15:20:14.079Z,100464.87
2022-11-03T15:25:17.238Z,100469.44
2022-11-03T15:27:47.765Z,100468.27
2022-11-03T15:30:19.949Z,100476.15
2022-11-03T15:32:51.894Z,100476.72
2022-11-03T15:35:25.382Z,100479.13
2022-11-03T15:37:55.204Z,100472.29
2022-11-03T15:40:32.669Z,100475.41
2022-11-03T15:43:03.419Z,100475.94
2022-11-03T15:45:33.232Z,100480.04
2022-11-03T15:48:03.137Z,100483.11
2022-11-03T15:50:32.119Z,100483.44
2022-11-03T15:53:02.995Z,100488.72
2022-11-03T15:55:31.828Z,100485.65
2022-11-03T15:58:01.133Z,100483.57
2022-11-03T16:00:30.908Z,100481.02
2022-11-03T16:03:00.562Z,100484.80
2022-11-03T16:05:29.873Z,100484.47
2022-11-03T16:08:00.384Z,100486.55
2022-11-03T16:10:30.502Z,100481.08
2022-11-03T16:12:59.569Z,100479.71
2022-11-03T16:15:30.920Z,100486.23
2022-11-03T16:18:02.902Z,100486.55
2022-11-03T16:20:31.941Z,100483.30
2022-11-03T16:23:01.981Z,100481.41
2022-11-03T16:25:31.176Z,100490.66
2022-11-03T16:28:00.396Z,100487.59
2022-11-03T16:30:29.672Z,100495.48
2022-11-03T16:33:00.132Z,100499.25
2022-11-03T16:35:29.436Z,100496.00
2022-11-03T16:37:59.456Z,100498.41
2022-11-03T16:40:28.553Z,100497.36
2022-11-03T16:42:58.355Z,100494.11
2022-11-03T16:45:29.640Z,100498.59
2022-11-03T16:48:00.294Z,100492.98
2022-11-03T16:50:29.532Z,100501.72
2022-11-03T16:52:58.858Z,100496.95
2022-11-03T16:55:28.146Z,100494.22
2022-11-03T16:57:57.221Z,100500.92
2022-11-03T17:00:26.408Z,100501.11
2022-11-03T17:02:56.165Z,100506.39
2022-11-03T17:05:25.296Z,100508.61
2022-11-03T17:07:54.661Z,100503.47
2022-11-03T17:10:24.692Z,100509.27
2022-11-03T17:12:54.135Z,100507.05
2022-11-03T17:15:22.713Z,100501.58
2022-11-03T17:17:51.813Z,100500.73
2022-11-03T17:20:21.277Z,100493.04
2022-11-03T17:22:51.377Z,100494.55
2022-11-03T17:25:20.385Z,100490.11
2022-11-03T17:27:57.028Z,100487.18
2022-11-03T17:30:28.519Z,100486.34
2022-11-03T17:33:07.189Z,100484.31
2022-11-03T17:35:41.849Z,100481.58
2022-11-03T17:38:15.445Z,100482.09
2022-11-03T17:40:46.780Z,100481.24
2022-11-03T17:43:23.809Z,100490.49
2022-11-03T17:45:54.298Z,100488.47
2022-11-03T17:48:24.167Z,100494.45
2022-11-03T17:50:55.607Z,100493.09
2022-11-03T17:53:27.389Z,100491.20
2022-11-03T17:56:27.692Z,100491.86
2022-11-03T17:58:33.815Z,100485.87
2022-11-03T18:01:05.295Z,100482.80
2022-11-03T18:03:36.544Z,100485.54
2022-11-03T18:06:14.612Z,100489.27
2022-11-03T18:08:44.346Z,100480.20
2022-11-03T18:11:17.367Z,100490.11
2022-11-03T18:13:48.649Z,100490.77
2022-11-03T18:16:18.872Z,100491.42
2022-11-03T18:18:49.485Z,100485.95
2022-11-03T18:21:20.299Z,100491.42
2022-11-03T18:23:49.680Z,100498.92
2022-11-03T18:26:24.125Z,100494.30
2022-11-03T18:28:56.817Z,100490.71
2022-11-03T18:31:34.910Z,100488.50
2022-11-03T18:34:06.457Z,100490.91
2022-11-03T18:36:35.500Z,100491.23
2022-11-03T18:39:04.850Z,100487.31
2022-11-03T18:41:37.695Z,100482.23
2022-11-03T18:44:21.256Z,100479.16
2022-11-03T18:46:55.302Z,100478.31
2022-11-03T18:49:25.128Z,100475.91
2022-11-03T18:52:03.942Z,100478.31
2022-11-03T18:54:34.289Z,100483.46
2022-11-03T18:57:03.851Z,100482.94
2022-11-03T18:59:36.685Z,100474.92
2022-11-03T19:02:20.945Z,100479.22
2022-11-03T19:04:50.381Z,100486.77
2022-11-03T19:07:32.016Z,100480.45
2022-11-03T19:10:05.507Z,100487.09
2022-11-03T19:12:39.175Z,100484.88
2022-11-03T19:15:14.709Z,100486.11
2022-11-03T19:17:43.568Z,100481.34
2022-11-03T19:20:15.411Z,100481.68
2022-11-03T19:22:46.846Z,100477.05
2022-11-03T19:25:18.648Z,100479.41
2022-11-03T19:27:48.636Z,100479.93
2022-11-03T19:30:20.495Z,100482.66
2022-11-03T19:32:52.373Z,100484.03
2022-11-03T19:35:24.621Z,100486.77
2022-11-03T19:38:07.158Z,100483.89
2022-11-03T19:40:37.272Z,100483.56
2022-11-03T19:43:10.302Z,100483.19
2022-11-03T19:45:41.340Z,100482.66
2022-11-03T19:48:23.856Z,100484.36
2022-11-03T19:50:44.218Z,100484.69
2022-11-03T19:53:27.005Z,100481.30
2022-11-03T19:55:57.726Z,100476.02
2022-11-03T19:58:28.876Z,100478.05
2022-11-03T20:01:02.834Z,100477.37
2022-11-03T20:03:32.353Z,100483.05
2022-11-03T20:06:02.265Z,100478.61
2022-11-03T20:08:32.098Z,100473.49
2022-11-03T20:11:02.305Z,100471.46
2022-11-03T20:13:36.902Z,100470.62
2022-11-03T20:16:13.104Z,100474.06
2022-11-03T20:18:43.813Z,100475.29
2022-11-03T20:21:16.360Z,100471.23
2022-11-03T20:23:45.239Z,100470.91
2022-11-03T20:26:23.030Z,100477.42
2022-11-03T20:28:54.267Z,100473.83
2022-11-03T20:31:24.272Z,100478.92
2022-11-03T20:33:53.963Z,100479.39
2022-11-03T20:36:24.222Z,100473.21
2022-11-03T20:38:56.142Z,100472.17
2022-11-03T20:41:26.912Z,100471.33
2022-11-03T20:43:56.625Z,100474.58
2022-11-03T20:46:32.698Z,100468.59
2022-11-03T20:49:01.616Z,100472.69
2022-11-03T20:51:35.795Z,100471.66
2022-11-03T20:54:19.606Z,100474.20
2022-11-03T20:56:49.288Z,100473.34
2022-11-03T20:59:21.385Z,100479.67
2022-11-03T21:01:52.017Z,100470.62
2022-11-03T21:04:21.886Z,100473.55
2022-11-03T21:06:51.555Z,100472.17
2022-11-03T21:09:21.421Z,100471.84
2022-11-03T21:11:51.871Z,100469.11
2022-11-03T21:14:31.313Z,100472.03
2022-11-03T21:17:20.526Z,100469.48
2022-11-03T21:20:02.253Z,100462.98
2022-11-03T21:22:52.402Z,100461.42
2022-11-03T21:25:19.016Z,100463.64
2022-11-03T21:27:55.981Z,100464.16
2022-11-03T21:30:33.874Z,100462.59
2022-11-03T21:33:09.654Z,100459.20
2022-11-03T21:35:46.367Z,100461.28
2022-11-03T21:38:22.594Z,100459.39
2022-11-03T21:40:58.742Z,100461.61
2022-11-03T21:43:51.983Z,100458.55
2022-11-03T21:46:27.367Z,100463.17
2022-11-03T21:49:20.851Z,100456.14
2022-11-03T21:51:56.211Z,100458.69
2022-11-03T21:54:32.006Z,100459.86
2022-11-03T21:57:07.633Z,100454.72
2022-11-03T21:59:43.215Z,100449.25
2022-11-03T22:02:16.653Z,100446.70
2022-11-03T22:04:51.379Z,100452.69
2022-11-03T22:07:28.815Z,100448.06
2022-11-03T22:10:05.601Z,100449.44
2022-11-03T22:12:41.945Z,100446.18
2022-11-03T22:15:35.256Z,100441.94
2022-11-03T22:18:11.985Z,100446.89
2022-11-03T22:21:04.775Z,100440.37
2022-11-03T22:23:58.995Z,100435.95
2022-11-03T22:26:52.692Z,100433.54
2022-11-03T22:29:46.877Z,100427.03
2022-11-03T22:32:23.417Z,100427.03
2022-11-03T22:35:15.602Z,100419.34
2022-11-03T22:37:49.654Z,100435.95
2022-11-03T22:40:43.728Z,100429.95
2022-11-03T22:43:38.172Z,100435.76
2022-11-03T22:46:13.243Z,100434.39
2022-11-03T22:48:48.585Z,100439.67
2022-11-03T22:51:23.450Z,100441.70
2022-11-03T22:54:11.089Z,100442.22
2022-11-03T22:56:39.863Z,100442.59
2022-11-03T22:59:10.353Z,100443.31
2022-11-03T23:01:40.407Z,100439.91
2022-11-03T23:04:09.854Z,100444.02
2022-11-03T23:06:41.325Z,100438.03
2022-11-03T23:09:11.934Z,100442.46
2022-11-03T23:11:42.017Z,100441.94
2022-11-03T23:14:10.822Z,100439.34
2022-11-03T23:16:42.902Z,100441.23
2022-11-03T23:19:32.245Z,100436.09
2022-11-03T23:22:01.461Z,100444.10
2022-11-03T23:24:49.327Z,100437.13
2022-11-03T23:27:18.115Z,100437.31
2022-11-03T23:29:47.332Z,100436.98
2022-11-03T23:32:16.432Z,100440.57
2022-11-03T23:34:45.072Z,100444.81
2022-11-03T23:37:14.777Z,100446.51
2022-11-03T23:39:44.103Z,100440.52
2022-11-03T23:42:14.006Z,100440.00
2022-11-03T23:45:01.127Z,100439.48
2022-11-03T23:47:48.921Z,100442.22
2022-11-03T23:50:17.540Z,100443.06
2022-11-03T23:52:47.964Z,100443.91
2022-11-03T23:55:16.993Z,100438.16
2022-11-03T23:58:04.903Z,100433.08
